ES-0148 weather

Aeródromo Villanueva de la Cañada
Madrid, Spain

Public forecast

Using degrees Celsius for public forecast. Weather courtesy of forecast.io.

Closest aviation weather report (METAR) to Aeródromo Villanueva de la Cañada

Report is more than 2 hours old.

Closest report is Getafe Air Base, 16.2 nm (30.0 km) ESE. Retrieved 2019/10/23 19:00 UTC (5 hours ago):

LEGT 231900Z 23005KT 200V260 9999 FEW007 SCT008 BKN010 10/09 Q1010

Closest aviation forecast (TAF) to Aeródromo Villanueva de la Cañada

Forecast is more than 12 hours old.

Closest forecast is Getafe Air Base, 16.2 nm (30.0 km) ESE. Retrieved 2018/03/28 12:33 UTC (2 years ago):

TAF LEGT 281100Z 2812/2824 24010KT CAVOK PROB40 TEMPO 2814/2818 27015G25KT TEMPO 2820/2824 28008KT